• Join FlightAware (Why Join?)
  • Login
  • US Flag 
Gobble Gobble! 
08:28PM EST


 

Airport Tracker/Info


-or-


 

Live Flight TrackerFlight Track Log ✈ SWA2147 ✈ 30-Apr-2012 ✈ KAUS - KHOU

Flight Track Log - Related Links

Times and Time Zones

All times are in EDT time to prevent confusion due to time zone crossing. See the SWA2147 flight status page for this flight to view local times or setup timezone preferences in your user account.

Time Position Orientation Groundspeed Altitude Reporting Facility
EDT Latitude Longitude Course Direction KTS MPH feet Rate Location/Type
10:37PM 30.2758 -97.5909 156° South  Level FlightAware Approximate
10:38PM 30.1586 -97.5306 63° Northeast 273 314 10,900  Level Houston Center
10:39PM 30.2003 -97.4369 84° East 304 350 21,000 3,300 Climbing Houston Center
10:40PM 30.2117 -97.3175 90° East 347 399 17,600 -120 Descending Houston Center
10:41PM 30.2108 -97.1853 90° East 394 453 20,800 1,680 Climbing Houston Center
10:42PM 30.2100 -97.0458 90° East 426 490 21,000 60 Climbing Houston Center
10:43PM 30.2092 -96.9067 90° East 438 504 21,000  Level Houston Center
10:44PM 30.2100 -96.7792 92° East 445 512 21,000 -300 Level Houston Center
10:45PM 30.2067 -96.6447 90° East 437 503 20,500 -1,680 Descending Houston Center
10:46PM 30.2075 -96.5100 90° East 421 484 17,700 -2,940 Descending Houston Center
10:47PM 30.2078 -96.3781 92° East 415 478 14,700 -2,940 Descending Houston Center
10:48PM 30.2036 -96.2603 128° Southeast 390 449 11,800 -1,860 Descending Houston Center
10:49PM 30.1458 -96.1758 154° Southeast 309 356 11,000 -480 Descending Houston Center
10:50PM 30.0578 -96.1264 156° South 310 357 10,900 -60 Descending Houston Center
10:51PM 29.9758 -96.0844 156° South 316 364 10,900 -240 Level Houston Center
10:52PM 29.8956 -96.0428 150° Southeast 322 371 10,500 -480 Descending Houston Center
10:53PM 29.8119 -95.9867 134° Southeast 327 376 10,000 -300 Descending Houston Center
10:54PM 29.7494 -95.9122 135° Southeast 332 382 10,000 -480 Level Houston Center
10:55PM 29.6911 -95.8453 134° Southeast 320 368 9,100 -1,440 Descending Houston Center
10:56PM 29.6367 -95.7811 93° East 294 338 7,200 -1,620 Descending Houston Center
10:57PM 29.6331 -95.6972 61° Northeast 249 287 6,000 -1,500 Descending Houston Center
10:58PM 29.6686 -95.6222 56° Northeast 227 261 4,200 -1,740 Descending Houston Center
10:59PM 29.7103 -95.5497 59° Northeast 247 284 2,600 -1,080 Descending Houston Center
11:00PM 29.7456 -95.4817 78° East 247 284 2,100 -300 Descending Houston Center
11:01PM 29.7578 -95.4175 134° Southeast 214 246 2,100 -180 Level Houston Center
11:03PM 29.7094 -95.3608 134° Southeast 151 174 1,700 -300 Descending Houston Center